Iroquois, SD (57353)

2:17 PM CDT on October 22, 2019 (GMT -0500)
Logan 16 | | Change Station
Active Advisory: High Wind Advisory

Elev 1342 ft 44.33 °N, 97.93 °W | Updated 17 minutes ago

Clear
Clear
50.3 °F
Feels Like 50.3 °F
N
17
Wind Variable Wind from NW
Gusts 31.0 mph

Today
High -- | Low -- °F
--% Chance of Precip.
Yesterday
High -- | Low -- °F
Precip. -- in
Pressure 29.84 in
Visibility 10.0 miles
Clouds Few 5500 ft
Dew Point 32 °F
Humidity 50%
Rainfall 0.00 in
Snow Depth Not available.
7:55 AM 6:35 PM
Waning Crescent, 36% visible
METAR KHON 221855Z AUTO 31017G28KT 10SM FEW055 11/M02 A2982 RMK AO2 PK WND 29031/1829 SLP104 T01111017
Pressure 29.84 in
Visibility 10.0 miles
Clouds Few 5500 ft
Dew Point 32 °F
Humidity 50%
Rainfall 0.00 in
Snow Depth Not available.
7:55 AM 6:35 PM
Waning Crescent, 36% visible
METAR KHON 221855Z AUTO 31017G28KT 10SM FEW055 11/M02 A2982 RMK AO2 PK WND 29031/1829 SLP104 T01111017

Get Your Daily Forecast Email!

Thanks for signing up!

Be on the lookout for a verification email in your inbox.

You'll start receiving severe weather alerts in your inbox..

×

10-Day Weather Forecast

Almanac

Astronomy

Oct. 22, 2019 Rise Set
Actual Time
Civil Twilight
Nautical Twilight
Astronomical Twilight
Moon
Length of Visible Light
Length of Day
Tomorrow will be .
, % of the Moon is Illuminated

Today's Extremes

State Highs State Lows

Community

WunderPhotos

Category 6

Welcome to Category 6. This is the collective home for Weather Underground's featured writeups by Dr. Jeff Masters (right), Bob Henson (left), Chris Burt, and other regular contributors.

Nearby

Air Quality

  Air Quality AQ Index Pollutant
Not available.

Snow Depth

Station Depth Elevation

Earthquake Activity

City Distance Mag. Time & Date
Minimum magnitude displayed is 2.5.

Coastal Water Temperatures

Place Temperature

Stations

Nearby Weather Stations

Station Location Temp. Windchill Dew Point Humidity Wind Precip. Elev Updated Type
                   

Watches & Warnings

There are currently no watches in effect.